createdAt,value
2022-08-08T09:46:35.586Z,96463.00
2022-08-08T09:49:40.898Z,96461.00
2022-08-08T09:52:06.078Z,96457.00
2022-08-08T09:54:44.585Z,96454.00
2022-08-08T09:57:19.455Z,96462.00
2022-08-08T10:00:34.236Z,96458.00
2022-08-08T10:02:45.513Z,96458.00
2022-08-08T10:05:25.434Z,96456.00
2022-08-08T10:08:00.597Z,96455.00
2022-08-08T10:10:50.146Z,96464.00
2022-08-08T10:13:32.061Z,96460.00
2022-08-08T10:16:03.910Z,96454.00
2022-08-08T10:18:35.984Z,96451.00
2022-08-08T10:21:24.949Z,96455.00
2022-08-08T10:23:59.487Z,96459.00
2022-08-08T10:26:52.006Z,96462.00
2022-08-08T10:29:56.722Z,96459.00
2022-08-08T10:32:40.256Z,96449.00
2022-08-08T10:36:08.539Z,96457.00
2022-08-08T10:38:14.701Z,96454.00
2022-08-08T10:40:45.738Z,96463.00
2022-08-08T10:43:14.466Z,96462.00
2022-08-08T10:45:55.871Z,96468.00
2022-08-08T10:48:56.699Z,96470.00
2022-08-08T10:51:30.778Z,96457.00
2022-08-08T10:54:00.111Z,96458.00
2022-08-08T10:56:32.519Z,96454.00
2022-08-08T10:59:10.373Z,96454.00
2022-08-08T11:01:54.435Z,96459.00
2022-08-08T11:04:38.573Z,96460.00
2022-08-08T11:07:07.432Z,96453.00
2022-08-08T11:09:47.472Z,96449.00
2022-08-08T11:12:15.020Z,96459.00
2022-08-08T11:14:56.913Z,96457.00
2022-08-08T11:17:58.227Z,96454.00
2022-08-08T11:20:27.972Z,96454.00
2022-08-08T11:23:05.214Z,96447.00
2022-08-08T11:25:43.618Z,96445.00
2022-08-08T11:28:29.511Z,96454.00
2022-08-08T11:31:03.999Z,96446.00
2022-08-08T11:33:52.759Z,96447.00
2022-08-08T11:36:29.244Z,96450.00
2022-08-08T11:38:57.021Z,96448.00
2022-08-08T11:41:27.864Z,96441.00
2022-08-08T11:44:01.117Z,96445.00
2022-08-08T11:46:32.533Z,96447.00
2022-08-08T11:49:05.191Z,96437.00
2022-08-08T11:51:38.138Z,96449.00
2022-08-08T11:54:26.850Z,96446.00
2022-08-08T11:56:58.207Z,96440.00
2022-08-08T12:00:00.246Z,96434.00
2022-08-08T12:02:34.146Z,96425.00
2022-08-08T12:05:12.600Z,96425.00
2022-08-08T12:07:53.218Z,96433.00
2022-08-08T12:10:24.642Z,96433.00
2022-08-08T12:13:09.425Z,96428.00
2022-08-08T12:15:49.033Z,96427.00
2022-08-08T12:18:25.253Z,96424.00
2022-08-08T12:20:56.633Z,96421.00
2022-08-08T12:23:42.763Z,96424.00
2022-08-08T12:26:27.221Z,96418.00
2022-08-08T12:28:59.483Z,96422.00
2022-08-08T12:31:38.749Z,96419.00
2022-08-08T12:34:20.531Z,96408.00
2022-08-08T12:37:05.576Z,96406.00
2022-08-08T12:40:01.913Z,96408.00
2022-08-08T12:42:27.400Z,96409.00
2022-08-08T12:45:54.311Z,96412.00
2022-08-08T12:48:09.687Z,96406.00
2022-08-08T12:50:48.095Z,96409.00
2022-08-08T12:53:37.761Z,96403.00
2022-08-08T12:56:19.618Z,96410.00
2022-08-08T12:58:54.282Z,96403.00
2022-08-08T13:01:36.992Z,96405.00
2022-08-08T13:04:25.193Z,96406.00
2022-08-08T13:07:00.613Z,96404.00
2022-08-08T13:10:04.551Z,96406.00
2022-08-08T13:12:46.565Z,96406.00
2022-08-08T13:15:16.928Z,96394.00
2022-08-08T13:17:54.257Z,96405.00
2022-08-08T13:20:34.435Z,96396.00
2022-08-08T13:23:31.243Z,96401.00
2022-08-08T13:25:51.209Z,96396.00
2022-08-08T13:28:32.490Z,96398.00
2022-08-08T13:31:03.841Z,96399.00
2022-08-08T13:33:42.283Z,96397.00
2022-08-08T13:36:10.947Z,96390.00
2022-08-08T13:38:39.769Z,96392.00
2022-08-08T13:41:16.079Z,96389.00
2022-08-08T13:43:49.664Z,96382.00
2022-08-08T13:46:27.098Z,96387.00
2022-08-08T13:50:33.901Z,96389.00
2022-08-08T13:52:00.867Z,96385.00
2022-08-08T13:54:31.833Z,96376.00
2022-08-08T13:57:12.803Z,96386.00
2022-08-08T13:59:49.064Z,96366.00
2022-08-08T14:02:32.912Z,96370.00
2022-08-08T14:05:20.413Z,96366.00
2022-08-08T14:07:52.625Z,96375.00
2022-08-08T14:10:33.476Z,96365.00
2022-08-08T14:13:31.238Z,96360.00
2022-08-08T14:16:16.151Z,96370.00
2022-08-08T14:19:10.872Z,96376.00
2022-08-08T14:21:48.829Z,96370.00
2022-08-08T14:24:33.556Z,96372.00
2022-08-08T14:27:01.946Z,96368.00
2022-08-08T14:29:39.255Z,96369.00
2022-08-08T14:32:12.493Z,96364.00
2022-08-08T14:34:45.212Z,96366.00
2022-08-08T14:37:17.884Z,96370.00
2022-08-08T14:40:06.659Z,96367.00
2022-08-08T14:42:55.055Z,96361.00
2022-08-08T14:45:46.777Z,96351.00
2022-08-08T14:48:27.221Z,96353.00
2022-08-08T14:51:06.529Z,96346.00
2022-08-08T14:53:54.908Z,96354.00
2022-08-08T14:56:25.940Z,96354.00
2022-08-08T14:58:55.022Z,96361.00
2022-08-08T15:01:37.681Z,96354.00
2022-08-08T15:04:09.651Z,96355.00
2022-08-08T15:06:37.322Z,96355.00
2022-08-08T15:09:04.821Z,96358.00
2022-08-08T15:11:42.979Z,96354.00
2022-08-08T15:14:14.573Z,96356.00
2022-08-08T15:16:44.484Z,96355.00
2022-08-08T15:19:11.877Z,96353.00
2022-08-08T15:21:44.673Z,96357.00
2022-08-08T15:24:13.957Z,96357.00
2022-08-08T15:26:46.709Z,96344.00
2022-08-08T15:29:22.497Z,96355.00
2022-08-08T15:32:18.935Z,96353.00
2022-08-08T15:34:39.324Z,96349.00
2022-08-08T15:37:07.194Z,96353.00
2022-08-08T15:39:37.728Z,96350.00
2022-08-08T15:42:13.301Z,96349.00
2022-08-08T15:44:51.672Z,96344.00
2022-08-08T15:47:22.440Z,96345.00
2022-08-08T15:49:50.827Z,96349.00
2022-08-08T15:52:21.998Z,96343.00
2022-08-08T15:54:51.823Z,96347.00
2022-08-08T15:57:21.022Z,96345.00
2022-08-08T16:00:06.847Z,96341.00
2022-08-08T16:02:50.499Z,96343.00
2022-08-08T16:05:23.597Z,96342.00
2022-08-08T16:07:53.964Z,96341.00
2022-08-08T16:13:10.084Z,96340.00
2022-08-08T16:13:32.318Z,96336.00
2022-08-08T16:16:13.338Z,96335.00
2022-08-08T16:18:53.138Z,96341.00
2022-08-08T16:21:32.212Z,96336.00
2022-08-08T16:24:10.206Z,96338.00
2022-08-08T16:26:40.735Z,96339.00
2022-08-08T16:29:16.421Z,96339.00
2022-08-08T16:31:49.941Z,96341.00
2022-08-08T16:34:21.456Z,96338.00
2022-08-08T16:36:50.319Z,96337.00
2022-08-08T16:40:01.163Z,96342.00
2022-08-08T16:42:06.362Z,96336.00
2022-08-08T16:44:34.595Z,96339.00
2022-08-08T16:47:40.409Z,96339.00
2022-08-08T16:50:14.290Z,96343.00
2022-08-08T16:55:22.623Z,96339.00
2022-08-08T16:55:55.710Z,96339.00
2022-08-08T16:58:25.813Z,96337.00
2022-08-08T17:00:55.359Z,96345.00
2022-08-08T17:03:57.794Z,96339.00
2022-08-08T17:06:37.448Z,96338.00
2022-08-08T17:08:59.272Z,96332.00
2022-08-08T17:11:27.943Z,96343.00
2022-08-08T17:14:01.445Z,96346.00
2022-08-08T17:16:30.073Z,96343.00
2022-08-08T17:18:58.422Z,96348.00
2022-08-08T17:21:41.484Z,96347.00
2022-08-08T17:24:10.501Z,96341.00
2022-08-08T17:26:49.152Z,96345.00
2022-08-08T17:29:25.050Z,96348.00
2022-08-08T17:31:52.883Z,96351.00
2022-08-08T17:34:54.213Z,96353.00
2022-08-08T17:37:11.139Z,96355.00
2022-08-08T17:40:03.167Z,96357.00
2022-08-08T17:42:28.203Z,96362.00
2022-08-08T17:44:58.098Z,96363.00
2022-08-08T17:47:27.519Z,96362.00
2022-08-08T17:50:01.005Z,96367.00
2022-08-08T17:52:35.549Z,96370.00
2022-08-08T17:55:09.398Z,96365.00
2022-08-08T17:57:53.745Z,96368.00
2022-08-08T18:00:26.061Z,96373.00
2022-08-08T18:03:09.010Z,96367.00
2022-08-08T18:05:48.786Z,96373.00
2022-08-08T18:08:24.824Z,96375.00
2022-08-08T18:11:14.730Z,96385.00
2022-08-08T18:13:45.709Z,96383.00
2022-08-08T18:16:20.275Z,96385.00
2022-08-08T18:18:52.398Z,96383.00
2022-08-08T18:21:34.343Z,96384.00
2022-08-08T18:24:18.913Z,96378.00
2022-08-08T18:26:55.001Z,96386.00
2022-08-08T18:29:32.881Z,96386.00
2022-08-08T18:32:04.893Z,96396.00
2022-08-08T18:34:33.571Z,96395.00
2022-08-08T18:37:04.912Z,96403.00
2022-08-08T18:39:36.465Z,96404.00
2022-08-08T18:42:06.699Z,96404.00
2022-08-08T18:44:41.907Z,96410.00
2022-08-08T18:47:09.006Z,96408.00
2022-08-08T18:49:57.381Z,96412.00
2022-08-08T18:52:24.084Z,96421.00
2022-08-08T18:54:59.360Z,96414.00
2022-08-08T18:57:31.915Z,96419.00
2022-08-08T19:00:07.544Z,96430.00
2022-08-08T19:02:37.850Z,96430.00
2022-08-08T19:05:22.604Z,96435.00
2022-08-08T19:07:52.276Z,96442.00
2022-08-08T19:10:20.300Z,96443.00
2022-08-08T19:12:53.209Z,96442.00
2022-08-08T19:15:21.653Z,96448.00
2022-08-08T19:18:32.495Z,96457.00
2022-08-08T19:20:40.404Z,96453.00
2022-08-08T19:23:10.902Z,96456.00
2022-08-08T19:26:02.244Z,96458.00
2022-08-08T19:28:25.835Z,96455.00
2022-08-08T19:31:03.927Z,96457.00
2022-08-08T19:33:51.591Z,96465.00
2022-08-08T19:36:25.112Z,96472.00
2022-08-08T19:38:56.517Z,96467.00
2022-08-08T19:41:33.727Z,96468.00
2022-08-08T19:44:03.984Z,96473.00
2022-08-08T19:46:40.087Z,96468.00
2022-08-08T19:49:07.642Z,96474.00
2022-08-08T19:51:41.618Z,96478.00
2022-08-08T19:54:11.716Z,96485.00
2022-08-08T19:56:41.430Z,96485.00
2022-08-08T19:59:10.106Z,96492.00
2022-08-08T20:02:01.867Z,96497.00
2022-08-08T20:04:27.979Z,96499.00
2022-08-08T20:06:57.669Z,96499.00
2022-08-08T20:09:25.331Z,96504.00
2022-08-08T20:11:57.615Z,96502.00
2022-08-08T20:14:35.649Z,96500.00
2022-08-08T20:17:09.146Z,96512.00
2022-08-08T20:19:43.500Z,96510.00
2022-08-08T20:22:13.483Z,96502.00
2022-08-08T20:24:48.761Z,96507.00
2022-08-08T20:27:20.377Z,96508.00
2022-08-08T20:29:55.764Z,96507.00
2022-08-08T20:32:31.808Z,96513.00
2022-08-08T20:35:02.487Z,96505.00
2022-08-08T20:37:46.688Z,96505.00
2022-08-08T20:40:20.426Z,96507.00
2022-08-08T20:43:16.483Z,96505.00
2022-08-08T20:45:57.897Z,96508.00
2022-08-08T20:48:30.739Z,96506.00
2022-08-08T20:50:58.222Z,96504.00
2022-08-08T20:53:58.387Z,96509.00
2022-08-08T20:56:14.054Z,96509.00
2022-08-08T20:58:48.004Z,96502.00
2022-08-08T21:01:19.397Z,96501.00
2022-08-08T21:03:59.879Z,96501.00
2022-08-08T21:06:52.626Z,96503.00
2022-08-08T21:09:16.487Z,96500.00
2022-08-08T21:11:51.358Z,96501.00
2022-08-08T21:14:30.154Z,96502.00
2022-08-08T21:17:02.290Z,96507.00
2022-08-08T21:19:33.936Z,96507.00
2022-08-08T21:22:11.825Z,96510.00
2022-08-08T21:24:41.958Z,96513.00
2022-08-08T21:28:06.055Z,96506.00
2022-08-08T21:30:17.948Z,96503.00
2022-08-08T21:32:52.286Z,96500.00
2022-08-08T21:36:13.818Z,96508.00
2022-08-08T21:38:16.363Z,96508.00
2022-08-08T21:40:54.739Z,96509.00
2022-08-08T21:43:33.587Z,96505.00
2022-08-08T21:48:04.625Z,96515.00
2022-08-08T21:48:53.061Z,96504.00
2022-08-08T21:54:18.445Z,96511.00
2022-08-08T21:54:33.228Z,96513.00
2022-08-08T21:57:08.252Z,96508.00
2022-08-08T21:59:59.407Z,96518.00
2022-08-08T22:02:24.907Z,96514.00
2022-08-08T22:04:56.082Z,96522.00
2022-08-08T22:07:39.982Z,96519.00
2022-08-08T22:10:18.287Z,96525.00
2022-08-08T22:13:17.139Z,96521.00
2022-08-08T22:15:59.391Z,96529.00
2022-08-08T22:18:33.866Z,96518.00
2022-08-08T22:21:10.769Z,96526.00
2022-08-08T22:23:50.271Z,96528.00
2022-08-08T22:26:29.244Z,96528.00
2022-08-08T22:29:14.787Z,96529.00
2022-08-08T22:31:58.753Z,96527.00
2022-08-08T22:34:32.149Z,96531.00
2022-08-08T22:37:00.112Z,96525.00
2022-08-08T22:39:39.496Z,96535.00
2022-08-08T22:42:27.046Z,96534.00
2022-08-08T22:44:58.612Z,96521.00
2022-08-08T22:47:37.730Z,96519.00
2022-08-08T22:50:21.734Z,96519.00
2022-08-08T22:54:15.734Z,96519.00
2022-08-08T22:55:58.723Z,96519.00
2022-08-08T22:58:34.807Z,96518.00
2022-08-08T23:01:16.776Z,96514.00
2022-08-08T23:03:55.100Z,96514.00
2022-08-08T23:06:26.861Z,96512.00
2022-08-08T23:08:58.539Z,96511.00
2022-08-08T23:12:18.480Z,96512.00
2022-08-08T23:14:21.564Z,96504.00
2022-08-08T23:16:57.798Z,96513.00
2022-08-08T23:19:31.115Z,96521.00
2022-08-08T23:22:05.407Z,96514.00
2022-08-08T23:24:36.257Z,96516.00
2022-08-08T23:27:06.071Z,96517.00
2022-08-08T23:29:33.875Z,96519.00
2022-08-08T23:32:04.459Z,96523.00
2022-08-08T23:34:32.327Z,96517.00
2022-08-08T23:37:02.752Z,96520.00
2022-08-08T23:39:42.036Z,96523.00
2022-08-08T23:42:16.591Z,96510.00
2022-08-08T23:44:43.640Z,96505.00
2022-08-08T23:49:04.474Z,96510.00
2022-08-08T23:50:03.199Z,96500.00
2022-08-08T23:52:33.914Z,96500.00
2022-08-08T23:55:13.973Z,96501.00
2022-08-08T23:57:53.164Z,96496.00
